createdAt,value
2017-03-10T00:00:01.629Z,9
2017-03-10T00:05:01.732Z,9
2017-03-10T00:10:01.494Z,9
2017-03-10T00:15:01.461Z,9
2017-03-10T00:20:01.524Z,9
2017-03-10T00:25:01.254Z,8.9
2017-03-10T00:30:02.055Z,8.9
2017-03-10T00:35:02.098Z,8.9
2017-03-10T00:40:01.835Z,8.8
2017-03-10T00:45:01.653Z,8.8
2017-03-10T00:50:01.661Z,8.8
2017-03-10T00:55:01.466Z,8.8
2017-03-10T01:00:01.336Z,8.7
2017-03-10T01:05:01.689Z,8.7
2017-03-10T01:10:01.382Z,8.7
2017-03-10T01:15:01.225Z,8.7
2017-03-10T01:20:01.975Z,8.8
2017-03-10T01:25:01.705Z,8.7
2017-03-10T01:30:01.578Z,8.7
2017-03-10T01:35:01.481Z,8.7
2017-03-10T01:40:02.156Z,8.7
2017-03-10T01:45:01.928Z,8.7
2017-03-10T01:50:01.912Z,8.7
2017-03-10T01:55:01.685Z,8.7
2017-03-10T02:00:01.449Z,8.7
2017-03-10T02:05:01.527Z,8.8
2017-03-10T02:10:02.155Z,8.7
2017-03-10T02:15:01.233Z,8.8
2017-03-10T02:20:01.307Z,8.8
2017-03-10T02:25:02.045Z,8.8
2017-03-10T02:30:01.850Z,8.8
2017-03-10T02:35:01.718Z,8.8
2017-03-10T02:40:01.459Z,8.8
2017-03-10T02:45:01.339Z,8.8
2017-03-10T02:50:01.265Z,8.8
2017-03-10T02:55:01.970Z,8.9
2017-03-10T03:00:02.005Z,8.9
2017-03-10T03:05:02.040Z,8.9
2017-03-10T03:10:02.085Z,8.9
2017-03-10T03:15:01.218Z,8.9
2017-03-10T03:20:02.066Z,8.9
2017-03-10T03:25:01.928Z,8.9
2017-03-10T03:30:02.050Z,8.9
2017-03-10T03:35:01.264Z,8.9
2017-03-10T03:40:01.241Z,9
2017-03-10T03:45:01.337Z,9
2017-03-10T03:50:01.372Z,9
2017-03-10T03:55:02.121Z,8.9
2017-03-10T04:00:01.554Z,8.9
2017-03-10T04:05:01.326Z,8.9
2017-03-10T04:10:02.086Z,8.9
2017-03-10T04:15:02.145Z,8.9
2017-03-10T04:20:01.290Z,8.9
2017-03-10T04:25:01.198Z,8.9
2017-03-10T04:30:01.278Z,8.9
2017-03-10T04:35:01.539Z,8.9
2017-03-10T04:40:01.562Z,8.9
2017-03-10T04:45:01.902Z,8.9
2017-03-10T04:50:01.942Z,9
2017-03-10T04:55:01.239Z,9
2017-03-10T05:00:01.290Z,8.9
2017-03-10T05:05:01.931Z,9
2017-03-10T05:10:01.736Z,9
2017-03-10T05:15:01.441Z,9
2017-03-10T05:20:01.672Z,9
2017-03-10T05:25:01.509Z,8.9
2017-03-10T05:30:01.717Z,8.9
2017-03-10T05:35:02.135Z,8.9
2017-03-10T05:40:02.067Z,8.8
2017-03-10T05:45:01.376Z,8.8
2017-03-10T05:50:01.863Z,8.8
2017-03-10T05:55:02.016Z,8.8
2017-03-10T06:00:01.594Z,8.8
2017-03-10T06:05:01.276Z,8.8
2017-03-10T06:10:02.144Z,8.8
2017-03-10T06:15:01.792Z,8.8
2017-03-10T06:20:01.467Z,8.8
2017-03-10T06:25:01.661Z,8.7
2017-03-10T06:30:01.963Z,8.8
2017-03-10T06:35:01.461Z,8.9
2017-03-10T06:40:01.272Z,8.9
2017-03-10T06:45:01.878Z,8.8
2017-03-10T06:50:01.418Z,8.8
2017-03-10T06:55:01.982Z,8.9
2017-03-10T07:00:01.907Z,8.9
2017-03-10T07:05:02.064Z,8.9
2017-03-10T07:10:01.951Z,8.9
2017-03-10T07:15:01.903Z,8.9
2017-03-10T07:20:01.677Z,9
2017-03-10T07:25:01.865Z,9
2017-03-10T07:30:01.277Z,9
2017-03-10T07:35:01.236Z,9.1
2017-03-10T07:40:01.255Z,9.1
2017-03-10T07:45:01.984Z,9.2
2017-03-10T07:50:01.760Z,9.2
2017-03-10T07:55:01.978Z,9.2
2017-03-10T08:00:01.361Z,9.2
2017-03-10T08:05:02.074Z,9.4
2017-03-10T08:10:01.472Z,9.5
2017-03-10T08:15:02.186Z,9.5
2017-03-10T08:20:01.822Z,9.5
2017-03-10T08:25:02.062Z,9.5
2017-03-10T08:30:01.366Z,9.5
2017-03-10T08:35:02.048Z,9.6
2017-03-10T08:40:01.362Z,9.6
2017-03-10T08:45:02.069Z,9.6
2017-03-10T08:50:01.180Z,9.7
2017-03-10T08:55:02.124Z,9.8
2017-03-10T09:00:01.354Z,9.8
2017-03-10T09:05:01.631Z,9.8
2017-03-10T09:10:01.605Z,9.9
2017-03-10T09:15:01.947Z,10
2017-03-10T09:20:01.766Z,10
2017-03-10T09:25:01.268Z,10
2017-03-10T09:30:01.645Z,10.1
2017-03-10T09:35:01.743Z,10.1
2017-03-10T09:40:01.825Z,10.2
2017-03-10T09:45:01.695Z,10.2
2017-03-10T09:50:02.132Z,10.2
2017-03-10T09:55:01.167Z,10.2
2017-03-10T10:00:01.587Z,10.3
2017-03-10T10:05:01.498Z,10.4
2017-03-10T10:10:01.276Z,10.4
2017-03-10T10:15:01.938Z,10.6
2017-03-10T10:20:01.471Z,10.6
2017-03-10T10:25:01.549Z,10.6
2017-03-10T10:30:02.132Z,10.7
2017-03-10T10:35:01.334Z,10.7
2017-03-10T10:40:02.142Z,10.8
2017-03-10T10:45:01.840Z,10.8
2017-03-10T10:50:01.874Z,10.8
2017-03-10T10:55:01.594Z,10.8
2017-03-10T11:00:01.978Z,10.8
2017-03-10T11:05:01.717Z,10.8
2017-03-10T11:10:01.867Z,10.8
2017-03-10T11:15:01.731Z,10.8
2017-03-10T11:20:01.614Z,10.8
2017-03-10T11:25:01.990Z,10.8
2017-03-10T11:30:01.306Z,10.8
2017-03-10T11:35:01.439Z,10.8
2017-03-10T11:40:01.421Z,10.8
2017-03-10T11:45:02.181Z,10.8
2017-03-10T11:50:01.256Z,10.9
2017-03-10T11:55:01.911Z,10.9
2017-03-10T12:00:01.212Z,11
2017-03-10T12:05:01.463Z,11
2017-03-10T12:10:01.292Z,11.1
2017-03-10T12:15:01.510Z,11.1
2017-03-10T12:20:01.684Z,11.1
2017-03-10T12:25:01.828Z,11.1
2017-03-10T12:30:02.209Z,11.2
2017-03-10T12:35:01.345Z,11.3
2017-03-10T12:40:02.064Z,11.3
2017-03-10T12:45:01.575Z,11.3
2017-03-10T12:50:01.640Z,11.2
2017-03-10T12:55:01.380Z,11.2
2017-03-10T13:00:01.592Z,11.3
2017-03-10T13:05:01.205Z,11.6
2017-03-10T13:10:02.013Z,11.6
2017-03-10T13:15:01.300Z,11.7
2017-03-10T13:20:01.242Z,11.7
2017-03-10T13:25:01.597Z,11.8
2017-03-10T13:30:01.834Z,11.9
2017-03-10T13:35:02.076Z,12
2017-03-10T13:40:01.887Z,12
2017-03-10T13:45:01.463Z,12
2017-03-10T13:50:01.756Z,12
2017-03-10T13:55:01.343Z,12
2017-03-10T14:00:01.575Z,12.1
2017-03-10T14:05:01.948Z,12.2
2017-03-10T14:10:02.049Z,12.2
2017-03-10T14:15:02.060Z,12.1
2017-03-10T14:20:01.426Z,12.1
2017-03-10T14:25:01.735Z,12.1
2017-03-10T14:30:01.427Z,12.1
2017-03-10T14:35:01.785Z,12
2017-03-10T14:40:01.808Z,12
2017-03-10T14:45:01.617Z,11.9
2017-03-10T14:50:01.306Z,11.9
2017-03-10T14:55:01.387Z,11.9
2017-03-10T15:00:01.967Z,11.9
2017-03-10T15:05:01.509Z,11.9
2017-03-10T15:10:01.547Z,11.9
2017-03-10T15:15:01.439Z,11.8
2017-03-10T15:20:01.362Z,11.8
2017-03-10T15:25:01.514Z,11.6
2017-03-10T15:30:02.097Z,11.6
2017-03-10T15:35:01.265Z,11.6
2017-03-10T15:40:02.017Z,11.5
2017-03-10T15:45:01.632Z,11.4
2017-03-10T15:50:02.052Z,11.3
2017-03-10T15:55:01.600Z,11.3
2017-03-10T16:00:02.017Z,11.3
2017-03-10T16:05:01.417Z,11.1
2017-03-10T16:10:01.239Z,11.1
2017-03-10T16:15:01.635Z,11
2017-03-10T16:20:01.453Z,10.9
2017-03-10T16:25:01.527Z,10.9
2017-03-10T16:30:01.972Z,10.8
2017-03-10T16:35:02.109Z,10.8
2017-03-10T16:40:01.678Z,10.8
2017-03-10T16:45:01.337Z,10.8
2017-03-10T16:50:02.181Z,10.7
2017-03-10T16:55:01.728Z,10.6
2017-03-10T17:00:01.897Z,10.5
2017-03-10T17:05:01.498Z,10.5
2017-03-10T17:10:01.833Z,10.5
2017-03-10T17:15:01.661Z,10.4
2017-03-10T17:20:02.103Z,10.4
2017-03-10T17:25:01.601Z,10.3
2017-03-10T17:30:01.229Z,10.2
2017-03-10T17:35:01.509Z,10.2
2017-03-10T17:40:01.874Z,10.1
2017-03-10T17:45:02.071Z,10
2017-03-10T17:50:02.166Z,10
2017-03-10T17:55:02.213Z,9.9
2017-03-10T18:00:01.789Z,9.8
2017-03-10T18:05:01.948Z,9.7
2017-03-10T18:10:02.209Z,9.7
2017-03-10T18:15:01.355Z,9.7
2017-03-10T18:20:01.988Z,9.7
2017-03-10T18:25:01.365Z,9.7
2017-03-10T18:30:01.454Z,9.7
2017-03-10T18:35:01.510Z,9.5
2017-03-10T18:40:02.169Z,9.5
2017-03-10T18:45:01.930Z,9.4
2017-03-10T18:50:01.669Z,9.4
2017-03-10T18:55:02.201Z,9.3
2017-03-10T19:00:01.209Z,9.2
2017-03-10T19:05:01.746Z,9.2
2017-03-10T19:10:02.145Z,9.2
2017-03-10T19:15:01.719Z,9.1
2017-03-10T19:20:02.087Z,9.1
2017-03-10T19:25:02.011Z,9.1
2017-03-10T19:30:02.015Z,9
2017-03-10T19:35:02.033Z,9
2017-03-10T19:40:01.299Z,9
2017-03-10T19:45:01.577Z,9
2017-03-10T19:50:01.443Z,9
2017-03-10T19:55:01.538Z,8.9
2017-03-10T20:00:01.716Z,8.9
2017-03-10T20:05:01.344Z,8.9
2017-03-10T20:10:01.224Z,8.8
2017-03-10T20:15:02.026Z,8.8
2017-03-10T20:20:01.497Z,8.8
2017-03-10T20:25:01.876Z,8.8
2017-03-10T20:30:02.060Z,8.8
2017-03-10T20:35:01.633Z,8.8
2017-03-10T20:40:01.568Z,8.7
2017-03-10T20:45:02.179Z,8.6
2017-03-10T20:50:02.027Z,8.7
2017-03-10T20:55:01.504Z,8.7
2017-03-10T21:00:01.885Z,8.6
2017-03-10T21:05:01.682Z,8.6
2017-03-10T21:10:02.167Z,8.6
2017-03-10T21:15:01.449Z,8.6
2017-03-10T21:20:01.350Z,8.6
2017-03-10T21:25:01.610Z,8.6
2017-03-10T21:30:02.020Z,8.6
2017-03-10T21:35:01.642Z,8.6
2017-03-10T21:40:01.625Z,8.6
2017-03-10T21:45:01.943Z,8.6
2017-03-10T21:50:01.330Z,8.6
2017-03-10T21:55:01.990Z,8.6
2017-03-10T22:00:01.466Z,8.5
2017-03-10T22:05:01.695Z,8.6
2017-03-10T22:10:01.405Z,8.6
2017-03-10T22:15:02.150Z,8.6
2017-03-10T22:20:01.874Z,8.6
2017-03-10T22:25:01.273Z,8.6
2017-03-10T22:30:01.604Z,8.6
2017-03-10T22:35:01.312Z,8.6
2017-03-10T22:40:01.734Z,8.6
2017-03-10T22:45:01.364Z,8.6
2017-03-10T22:50:01.790Z,8.6
2017-03-10T22:55:01.823Z,8.6
2017-03-10T23:00:02.029Z,8.6
2017-03-10T23:05:01.586Z,8.6
2017-03-10T23:10:02.089Z,8.5
2017-03-10T23:15:02.049Z,8.5
2017-03-10T23:20:01.442Z,8.5
2017-03-10T23:25:01.460Z,8.5
2017-03-10T23:30:01.471Z,8.5
2017-03-10T23:35:01.916Z,8.5
2017-03-10T23:40:01.689Z,8.5
2017-03-10T23:45:02.139Z,8.5
2017-03-10T23:50:01.207Z,8.5
2017-03-10T23:55:01.946Z,8.5
